createdAt,value
2017-10-11T00:00:51.136Z,11.20
2017-10-11T00:03:17.754Z,11.20
2017-10-11T00:05:44.122Z,11.20
2017-10-11T00:08:11.250Z,11.20
2017-10-11T00:10:37.605Z,11.30
2017-10-11T00:13:04.687Z,11.30
2017-10-11T00:15:31.055Z,11.30
2017-10-11T00:17:57.398Z,11.30
2017-10-11T00:20:23.807Z,11.30
2017-10-11T00:22:50.176Z,11.30
2017-10-11T00:25:16.529Z,11.30
2017-10-11T00:27:42.877Z,11.30
2017-10-11T00:30:09.224Z,11.30
2017-10-11T00:32:35.586Z,11.30
2017-10-11T00:35:02.773Z,11.30
2017-10-11T00:37:29.127Z,11.20
2017-10-11T00:39:55.879Z,11.20
2017-10-11T00:42:22.322Z,11.20
2017-10-11T00:44:49.442Z,11.20
2017-10-11T00:47:15.836Z,11.20
2017-10-11T00:49:42.220Z,11.20
2017-10-11T00:52:09.606Z,11.20
2017-10-11T00:54:35.943Z,11.20
2017-10-11T00:57:02.841Z,11.20
2017-10-11T00:59:29.242Z,11.20
2017-10-11T01:01:55.637Z,11.20
2017-10-11T01:04:22.039Z,11.30
2017-10-11T01:06:48.395Z,11.30
2017-10-11T01:09:15.499Z,11.30
2017-10-11T01:11:41.823Z,11.30
2017-10-11T01:14:08.155Z,11.40
2017-10-11T01:16:34.521Z,11.40
2017-10-11T01:19:01.628Z,11.40
2017-10-11T01:21:28.458Z,11.40
2017-10-11T01:23:54.845Z,11.40
2017-10-11T01:26:21.308Z,11.50
2017-10-11T01:28:47.669Z,11.50
2017-10-11T01:31:14.079Z,11.40
2017-10-11T01:33:40.478Z,11.50
2017-10-11T01:36:06.818Z,11.50
2017-10-11T01:38:33.187Z,11.50
2017-10-11T01:40:59.567Z,11.50
2017-10-11T01:43:25.924Z,11.50
2017-10-11T01:45:52.339Z,11.50
2017-10-11T01:48:18.745Z,11.50
2017-10-11T01:50:45.136Z,11.50
2017-10-11T01:53:11.511Z,11.50
2017-10-11T01:55:37.880Z,11.50
2017-10-11T01:58:05.269Z,11.50
2017-10-11T02:00:31.662Z,11.50
2017-10-11T02:02:58.037Z,11.50
2017-10-11T02:05:25.201Z,11.50
2017-10-11T02:07:52.293Z,11.40
2017-10-11T02:10:18.681Z,11.40
2017-10-11T02:12:45.021Z,11.40
2017-10-11T02:15:11.485Z,11.40
2017-10-11T02:17:37.851Z,11.40
2017-10-11T02:20:04.964Z,11.30
2017-10-11T02:22:31.338Z,11.30
2017-10-11T02:24:58.458Z,11.20
2017-10-11T02:27:24.845Z,11.20
2017-10-11T02:29:51.193Z,11.20
2017-10-11T02:32:17.603Z,11.20
2017-10-11T02:34:43.929Z,11.10
2017-10-11T02:37:10.360Z,11.10
2017-10-11T02:39:36.699Z,11.10
2017-10-11T02:42:03.380Z,11.00
2017-10-11T02:44:30.451Z,10.90
2017-10-11T02:46:57.592Z,10.90
2017-10-11T02:49:24.706Z,10.80
2017-10-11T02:51:51.038Z,10.80
2017-10-11T02:54:17.561Z,10.80
2017-10-11T02:56:43.891Z,10.70
2017-10-11T02:59:10.539Z,10.70
2017-10-11T03:01:36.929Z,10.70
2017-10-11T03:04:03.267Z,10.70
2017-10-11T03:06:29.656Z,10.70
2017-10-11T03:08:56.797Z,10.60
2017-10-11T03:11:23.923Z,10.60
2017-10-11T03:13:50.301Z,10.60
2017-10-11T03:16:16.640Z,10.50
2017-10-11T03:18:43.010Z,10.50
2017-10-11T03:21:09.348Z,10.80
2017-10-11T03:23:35.732Z,11.20
2017-10-11T03:26:02.845Z,11.90
2017-10-11T03:28:29.172Z,11.90
2017-10-11T03:30:57.101Z,12.30
2017-10-11T03:33:23.517Z,12.30
2017-10-11T03:35:49.886Z,12.50
2017-10-11T03:38:16.254Z,12.60
2017-10-11T03:40:42.634Z,12.70
2017-10-11T03:43:09.275Z,12.70
2017-10-11T03:45:35.609Z,12.70
2017-10-11T03:48:01.949Z,12.70
2017-10-11T03:50:29.067Z,12.70
2017-10-11T03:52:55.428Z,12.70
2017-10-11T03:55:22.556Z,12.70
2017-10-11T03:57:48.924Z,12.70
2017-10-11T04:00:15.291Z,12.80
2017-10-11T04:02:41.683Z,12.90
2017-10-11T04:05:08.307Z,13.00
2017-10-11T04:07:35.386Z,13.00
2017-10-11T04:10:01.810Z,13.00
2017-10-11T04:12:28.190Z,13.00
2017-10-11T04:14:54.572Z,13.00
2017-10-11T04:17:20.960Z,13.10
2017-10-11T04:19:48.069Z,13.00
2017-10-11T04:22:14.442Z,13.00
2017-10-11T04:24:40.859Z,13.00
2017-10-11T04:27:07.290Z,13.00
2017-10-11T04:29:34.593Z,13.00
2017-10-11T04:32:00.953Z,13.00
2017-10-11T04:34:27.355Z,13.00
2017-10-11T04:36:53.807Z,13.00
2017-10-11T04:39:20.234Z,13.00
2017-10-11T04:41:46.640Z,13.00
2017-10-11T04:44:13.067Z,13.00
2017-10-11T04:46:39.430Z,13.00
2017-10-11T04:49:05.867Z,13.00
2017-10-11T04:51:32.303Z,13.00
2017-10-11T04:53:58.867Z,13.00
2017-10-11T04:56:25.261Z,13.10
2017-10-11T04:58:51.686Z,13.20
2017-10-11T05:01:18.075Z,13.20
2017-10-11T05:03:44.429Z,13.00
2017-10-11T05:06:10.805Z,12.90
2017-10-11T05:08:37.167Z,12.90
2017-10-11T05:11:04.275Z,13.00
2017-10-11T05:13:30.644Z,13.00
2017-10-11T05:15:58.081Z,12.80
2017-10-11T05:18:24.538Z,12.80
2017-10-11T05:20:50.938Z,12.70
2017-10-11T05:23:18.111Z,12.60
2017-10-11T05:25:44.530Z,12.60
2017-10-11T05:28:10.973Z,12.30
2017-10-11T05:30:37.349Z,11.90
2017-10-11T05:33:03.788Z,11.60
2017-10-11T05:35:30.206Z,11.20
2017-10-11T05:37:56.869Z,11.00
2017-10-11T05:40:23.196Z,10.80
2017-10-11T05:42:50.316Z,10.50
2017-10-11T05:45:16.689Z,10.50
2017-10-11T05:47:43.767Z,10.30
2017-10-11T05:50:10.137Z,10.30
2017-10-11T05:52:36.623Z,10.20
2017-10-11T05:55:03.030Z,10.20
2017-10-11T05:57:30.146Z,10.10
2017-10-11T05:59:56.512Z,10.10
2017-10-11T06:02:22.905Z,10.10
2017-10-11T06:04:49.256Z,10.10
2017-10-11T06:07:15.684Z,10.20
2017-10-11T06:09:42.081Z,10.10
2017-10-11T06:12:08.427Z,10.10
2017-10-11T06:14:34.792Z,10.20
2017-10-11T06:17:01.145Z,10.20
2017-10-11T06:19:27.529Z,10.20
2017-10-11T06:21:53.856Z,10.20
2017-10-11T06:24:20.273Z,10.30
2017-10-11T06:26:46.745Z,10.30
2017-10-11T06:29:13.107Z,10.30
2017-10-11T06:31:39.488Z,10.40
2017-10-11T06:34:05.830Z,10.50
2017-10-11T06:36:32.224Z,10.60
2017-10-11T06:38:58.590Z,10.70
2017-10-11T06:41:25.706Z,10.90
2017-10-11T06:43:52.071Z,10.90
2017-10-11T06:46:19.174Z,11.00
2017-10-11T06:48:45.576Z,11.00
2017-10-11T06:51:11.906Z,11.20
2017-10-11T06:53:38.435Z,11.20
2017-10-11T06:56:04.817Z,11.30
2017-10-11T06:58:31.212Z,11.40
2017-10-11T07:00:57.583Z,11.50
2017-10-11T07:03:24.312Z,11.60
2017-10-11T07:05:50.688Z,11.60
2017-10-11T07:08:17.104Z,11.60
2017-10-11T07:10:44.250Z,11.70
2017-10-11T07:13:11.328Z,11.70
2017-10-11T07:15:37.678Z,11.70
2017-10-11T07:18:04.022Z,11.80
2017-10-11T07:20:30.356Z,11.80
2017-10-11T07:22:56.708Z,11.90
2017-10-11T07:25:23.851Z,12.10
2017-10-11T07:27:50.954Z,12.10
2017-10-11T07:30:17.304Z,12.10
2017-10-11T07:32:43.626Z,12.20
2017-10-11T07:35:09.941Z,12.20
2017-10-11T07:37:36.291Z,12.20
2017-10-11T07:40:02.683Z,12.30
2017-10-11T07:42:29.050Z,12.30
2017-10-11T07:44:55.410Z,12.40
2017-10-11T07:47:22.535Z,12.50
2017-10-11T07:49:49.665Z,12.50
2017-10-11T07:52:16.341Z,12.50
2017-10-11T07:54:42.726Z,12.50
2017-10-11T07:57:09.137Z,12.60
2017-10-11T07:59:35.475Z,12.60
2017-10-11T08:02:01.847Z,12.70
2017-10-11T08:04:28.217Z,12.70
2017-10-11T08:06:54.595Z,12.80
2017-10-11T08:09:21.024Z,12.90
2017-10-11T08:11:47.353Z,12.90
2017-10-11T08:14:14.023Z,13.00
2017-10-11T08:16:41.177Z,13.10
2017-10-11T08:19:08.305Z,13.20
2017-10-11T08:21:35.459Z,13.40
2017-10-11T08:24:01.806Z,13.40
2017-10-11T08:26:28.250Z,13.50
2017-10-11T08:28:54.583Z,13.60
2017-10-11T08:31:21.695Z,13.80
2017-10-11T08:33:48.047Z,13.70
2017-10-11T08:36:14.397Z,13.80
2017-10-11T08:38:40.770Z,13.90
2017-10-11T08:41:07.388Z,13.90
2017-10-11T08:43:33.756Z,13.90
2017-10-11T08:46:00.838Z,14.00
2017-10-11T08:48:27.176Z,14.00
2017-10-11T08:50:53.514Z,14.10
2017-10-11T08:53:19.939Z,14.30
2017-10-11T08:55:46.299Z,14.40
2017-10-11T08:58:12.654Z,14.50
2017-10-11T09:00:39.726Z,14.80
2017-10-11T09:03:06.071Z,14.80
2017-10-11T09:05:32.445Z,14.90
2017-10-11T09:07:59.535Z,15.00
2017-10-11T09:10:25.941Z,15.00
2017-10-11T09:12:53.045Z,15.20
2017-10-11T09:15:19.399Z,15.10
2017-10-11T09:17:45.782Z,15.20
2017-10-11T09:20:12.457Z,15.30
2017-10-11T09:22:38.804Z,15.40
2017-10-11T09:25:05.944Z,15.50
2017-10-11T09:27:32.307Z,15.50
2017-10-11T09:29:58.650Z,15.60
2017-10-11T09:32:25.066Z,15.60
2017-10-11T09:34:51.365Z,15.70
2017-10-11T09:37:18.522Z,15.90
2017-10-11T09:39:45.637Z,16.00
2017-10-11T09:42:12.004Z,16.00
2017-10-11T09:44:38.356Z,16.20
2017-10-11T09:47:04.701Z,16.30
2017-10-11T09:49:31.057Z,16.40
2017-10-11T09:51:57.407Z,16.60
2017-10-11T09:54:24.604Z,16.80
2017-10-11T09:56:50.990Z,16.80
2017-10-11T09:59:18.063Z,17.20
2017-10-11T10:01:44.385Z,17.20
2017-10-11T10:04:11.012Z,17.30
2017-10-11T10:06:38.093Z,17.60
2017-10-11T10:09:04.471Z,17.60
2017-10-11T10:11:31.595Z,17.70
2017-10-11T10:14:01.712Z,17.70
2017-10-11T10:16:28.179Z,17.70
2017-10-11T10:18:54.637Z,17.80
2017-10-11T10:21:21.006Z,17.90
2017-10-11T10:23:47.353Z,17.90
2017-10-11T10:26:13.736Z,18.00
2017-10-11T10:28:40.077Z,18.10
2017-10-11T10:31:06.395Z,18.30
2017-10-11T10:33:32.767Z,18.30
2017-10-11T10:35:59.085Z,18.30
2017-10-11T10:38:25.446Z,18.30
2017-10-11T10:40:52.518Z,18.70
2017-10-11T10:43:18.882Z,18.60
2017-10-11T10:45:45.217Z,18.70
2017-10-11T10:48:11.587Z,18.90
2017-10-11T10:50:37.922Z,19.00
2017-10-11T10:53:04.382Z,19.10
2017-10-11T10:55:30.782Z,19.20
2017-10-11T10:57:57.139Z,19.50
2017-10-11T11:00:23.469Z,19.60
2017-10-11T11:02:49.815Z,19.60
2017-10-11T11:05:16.182Z,19.70
2017-10-11T11:07:43.283Z,19.90
2017-10-11T11:10:09.666Z,19.90
2017-10-11T11:12:36.797Z,20.20
2017-10-11T11:15:03.175Z,20.20
2017-10-11T11:17:29.566Z,20.30
2017-10-11T11:19:56.678Z,20.40
2017-10-11T11:22:23.053Z,20.30
2017-10-11T11:24:50.175Z,20.30
2017-10-11T11:27:16.557Z,20.40
2017-10-11T11:29:42.957Z,20.50
2017-10-11T11:32:10.387Z,20.90
2017-10-11T11:34:36.762Z,20.90
2017-10-11T11:37:03.168Z,20.90
2017-10-11T11:39:30.273Z,20.80
2017-10-11T11:41:56.636Z,20.70
2017-10-11T11:44:23.002Z,20.70
2017-10-11T11:46:49.366Z,20.80
2017-10-11T11:49:15.749Z,20.80
2017-10-11T11:51:42.100Z,20.80
2017-10-11T11:54:08.569Z,20.80
2017-10-11T11:56:34.911Z,20.90
2017-10-11T11:59:01.286Z,21.00
2017-10-11T12:01:27.692Z,21.10
2017-10-11T12:03:54.059Z,21.30
2017-10-11T12:06:20.484Z,21.50
2017-10-11T12:08:46.861Z,21.70
2017-10-11T12:11:13.246Z,21.60
2017-10-11T12:13:39.621Z,21.70
2017-10-11T12:16:05.955Z,21.70
2017-10-11T12:18:33.058Z,22.10
2017-10-11T12:20:59.669Z,22.10
2017-10-11T12:23:26.004Z,22.30
2017-10-11T12:25:52.403Z,22.50
2017-10-11T12:28:19.540Z,22.60
2017-10-11T12:30:46.646Z,22.70
2017-10-11T12:33:14.108Z,22.70
2017-10-11T12:35:40.841Z,22.70
2017-10-11T12:38:07.200Z,22.50
2017-10-11T12:40:34.340Z,22.30
2017-10-11T12:43:00.704Z,22.30
2017-10-11T12:45:27.834Z,22.30
2017-10-11T12:47:54.459Z,22.30
2017-10-11T12:50:20.835Z,22.20
2017-10-11T12:52:47.241Z,22.20
2017-10-11T12:55:14.323Z,22.10
2017-10-11T12:57:40.756Z,22.10
2017-10-11T13:00:07.173Z,21.90
2017-10-11T13:02:33.668Z,21.80
2017-10-11T13:05:00.021Z,21.70
2017-10-11T13:07:27.103Z,21.80
2017-10-11T13:09:53.491Z,21.70
2017-10-11T13:12:20.591Z,21.70
2017-10-11T13:14:46.923Z,21.70
2017-10-11T13:17:13.347Z,21.80
2017-10-11T13:19:40.082Z,22.00
2017-10-11T13:22:07.148Z,22.00
2017-10-11T13:24:33.501Z,22.00
2017-10-11T13:26:59.930Z,22.00
2017-10-11T13:29:26.324Z,22.10
2017-10-11T13:31:52.988Z,22.10
2017-10-11T13:34:19.344Z,22.20
2017-10-11T13:36:46.441Z,22.20
2017-10-11T13:39:12.872Z,22.20
2017-10-11T13:41:39.219Z,22.30
2017-10-11T13:44:05.594Z,22.40
2017-10-11T13:46:31.949Z,22.40
2017-10-11T13:48:58.347Z,22.40
2017-10-11T13:51:24.704Z,22.50
2017-10-11T13:53:51.070Z,22.50
2017-10-11T13:56:17.459Z,22.60
2017-10-11T13:58:43.799Z,22.70
2017-10-11T14:01:10.230Z,22.90
2017-10-11T14:03:36.584Z,23.00
2017-10-11T14:06:02.974Z,23.30
2017-10-11T14:08:29.303Z,23.40
2017-10-11T14:10:55.650Z,23.40
2017-10-11T14:13:22.063Z,23.70
2017-10-11T14:15:48.755Z,23.90
2017-10-11T14:18:15.866Z,24.40
2017-10-11T14:20:42.221Z,24.30
2017-10-11T14:23:08.605Z,24.30
2017-10-11T14:25:34.981Z,24.30
2017-10-11T14:28:01.422Z,24.40
2017-10-11T14:30:27.800Z,24.30
2017-10-11T14:32:54.192Z,24.30
2017-10-11T14:35:20.552Z,24.40
2017-10-11T14:37:48.810Z,24.20
2017-10-11T14:40:15.963Z,24.20
2017-10-11T14:42:43.087Z,24.20
2017-10-11T14:45:09.439Z,24.10
2017-10-11T14:47:35.781Z,24.20
2017-10-11T14:50:02.150Z,24.20
2017-10-11T14:52:28.496Z,24.10
2017-10-11T14:54:54.873Z,24.00
2017-10-11T14:57:21.235Z,24.10
2017-10-11T14:59:47.631Z,24.40
2017-10-11T15:02:13.993Z,24.50
2017-10-11T15:04:40.361Z,24.60
2017-10-11T15:07:06.760Z,24.60
2017-10-11T15:09:33.130Z,24.50
2017-10-11T15:12:00.247Z,24.50
2017-10-11T15:14:26.657Z,24.50
2017-10-11T15:16:53.040Z,24.50
2017-10-11T15:19:20.142Z,24.30
2017-10-11T15:21:46.897Z,24.30
2017-10-11T15:24:13.268Z,24.30
2017-10-11T15:26:39.643Z,23.90
2017-10-11T15:29:06.054Z,23.80
2017-10-11T15:31:32.406Z,23.70
2017-10-11T15:33:58.823Z,23.60
2017-10-11T15:36:25.156Z,23.40
2017-10-11T15:38:51.663Z,23.10
2017-10-11T15:41:18.758Z,21.90
2017-10-11T15:43:45.134Z,21.90
2017-10-11T15:46:11.462Z,21.30
2017-10-11T15:48:37.835Z,20.80
2017-10-11T15:51:04.194Z,20.30
2017-10-11T15:53:31.287Z,19.60
2017-10-11T15:55:57.682Z,19.60
2017-10-11T15:58:24.014Z,19.30
2017-10-11T16:00:50.415Z,19.00
2017-10-11T16:03:17.535Z,18.40
2017-10-11T16:05:43.864Z,18.40
2017-10-11T16:08:10.215Z,18.20
2017-10-11T16:10:36.950Z,18.00
2017-10-11T16:13:03.328Z,17.80
2017-10-11T16:15:29.656Z,17.60
2017-10-11T16:17:56.021Z,17.40
2017-10-11T16:20:22.620Z,17.20
2017-10-11T16:22:49.015Z,17.10
2017-10-11T16:25:15.369Z,16.90
2017-10-11T16:27:42.499Z,16.60
2017-10-11T16:30:09.616Z,16.40
2017-10-11T16:32:35.955Z,16.40
2017-10-11T16:35:02.324Z,16.30
2017-10-11T16:37:28.748Z,16.20
2017-10-11T16:39:55.923Z,15.90
2017-10-11T16:42:22.572Z,15.90
2017-10-11T16:44:48.982Z,15.70
2017-10-11T16:47:15.305Z,15.60
2017-10-11T16:49:42.009Z,15.40
2017-10-11T16:52:08.376Z,15.30
2017-10-11T16:54:34.731Z,15.30
2017-10-11T16:57:01.081Z,15.10
2017-10-11T16:59:27.438Z,15.00
2017-10-11T17:01:54.549Z,14.90
2017-10-11T17:04:20.937Z,14.90
2017-10-11T17:06:47.326Z,14.80
2017-10-11T17:09:13.701Z,14.70
2017-10-11T17:11:40.136Z,14.60
2017-10-11T17:14:07.283Z,14.40
2017-10-11T17:16:33.684Z,14.50
2017-10-11T17:19:00.782Z,14.20
2017-10-11T17:21:27.209Z,14.20
2017-10-11T17:23:54.306Z,14.00
2017-10-11T17:26:20.729Z,14.00
2017-10-11T17:28:47.089Z,14.00
2017-10-11T17:31:13.490Z,13.90
2017-10-11T17:33:39.809Z,13.80
2017-10-11T17:36:06.255Z,13.70
2017-10-11T17:38:32.785Z,13.60
2017-10-11T17:40:59.199Z,13.60
2017-10-11T17:43:25.609Z,13.50
2017-10-11T17:45:52.050Z,13.40
2017-10-11T17:48:18.457Z,13.30
2017-10-11T17:50:44.904Z,13.30
2017-10-11T17:53:11.269Z,13.20
2017-10-11T17:55:37.657Z,13.20
2017-10-11T17:58:04.057Z,13.10
2017-10-11T18:00:30.463Z,13.00
2017-10-11T18:02:57.929Z,12.90
2017-10-11T18:05:25.069Z,12.80
2017-10-11T18:07:52.181Z,12.80
2017-10-11T18:10:18.534Z,12.70
2017-10-11T18:12:51.935Z,12.70
2017-10-11T18:15:18.357Z,12.70
2017-10-11T18:17:44.840Z,12.60
2017-10-11T18:20:11.283Z,12.50
2017-10-11T18:22:37.714Z,12.50
2017-10-11T18:25:04.155Z,12.50
2017-10-11T18:27:30.669Z,12.40
2017-10-11T18:29:59.244Z,12.30
2017-10-11T18:32:25.659Z,12.30
2017-10-11T18:34:52.135Z,12.20
2017-10-11T18:37:18.576Z,12.20
2017-10-11T18:39:45.020Z,12.20
2017-10-11T18:42:11.478Z,12.10
2017-10-11T18:44:38.653Z,12.00
2017-10-11T18:47:05.149Z,12.00
2017-10-11T18:49:31.634Z,12.00
2017-10-11T18:51:58.063Z,11.90
2017-10-11T18:54:24.551Z,11.90
2017-10-11T18:56:51.009Z,11.80
2017-10-11T18:59:17.464Z,11.80
2017-10-11T19:01:50.965Z,11.70
2017-10-11T19:04:17.454Z,11.70
2017-10-11T19:06:44.631Z,11.60
2017-10-11T19:09:11.068Z,11.60
2017-10-11T19:11:37.578Z,11.50
2017-10-11T19:14:04.005Z,11.40
2017-10-11T19:16:30.446Z,11.50
2017-10-11T19:18:56.873Z,11.40
2017-10-11T19:21:23.285Z,11.40
2017-10-11T19:23:50.547Z,11.30
2017-10-11T19:26:17.012Z,11.30
2017-10-11T19:28:43.492Z,11.30
2017-10-11T19:31:10.653Z,11.20
2017-10-11T19:33:37.814Z,11.20
2017-10-11T19:36:04.278Z,11.20
2017-10-11T19:38:31.071Z,11.20
2017-10-11T19:40:58.285Z,11.20
2017-10-11T19:43:24.744Z,11.10
2017-10-11T19:45:51.953Z,11.10
2017-10-11T19:48:18.735Z,11.10
2017-10-11T19:50:46.458Z,11.10
2017-10-11T19:53:12.832Z,11.10
2017-10-11T19:55:39.254Z,11.10
2017-10-11T19:58:06.420Z,11.10
2017-10-11T20:00:46.587Z,11.10
2017-10-11T20:03:13.031Z,11.10
2017-10-11T20:05:39.463Z,11.00
2017-10-11T20:08:05.885Z,11.00
2017-10-11T20:10:33.318Z,11.00
2017-10-11T20:12:59.688Z,10.90
2017-10-11T20:15:26.119Z,10.90
2017-10-11T20:17:52.579Z,11.00
2017-10-11T20:20:18.962Z,10.90
2017-10-11T20:22:45.341Z,10.90
2017-10-11T20:25:11.727Z,10.90
2017-10-11T20:27:38.910Z,10.80
2017-10-11T20:30:05.333Z,10.80
2017-10-11T20:32:31.701Z,10.80
2017-10-11T20:34:58.818Z,10.80
2017-10-11T20:37:25.225Z,10.80
2017-10-11T20:39:51.656Z,10.80
2017-10-11T20:42:18.050Z,10.80
2017-10-11T20:44:44.434Z,10.80
2017-10-11T20:47:10.779Z,10.80
2017-10-11T20:49:37.196Z,10.80
2017-10-11T20:52:03.568Z,10.80
2017-10-11T20:54:30.693Z,10.70
2017-10-11T20:56:57.038Z,10.70
2017-10-11T20:59:24.179Z,10.60
2017-10-11T21:01:51.221Z,10.60
2017-10-11T21:04:17.566Z,10.60
2017-10-11T21:06:43.957Z,10.60
2017-10-11T21:09:10.325Z,10.50
2017-10-11T21:11:37.432Z,10.50
2017-10-11T21:14:03.816Z,10.50
2017-10-11T21:16:30.154Z,10.50
2017-10-11T21:18:56.505Z,10.50
2017-10-11T21:21:22.883Z,10.40
2017-10-11T21:23:49.980Z,10.40
2017-10-11T21:26:16.351Z,10.40
2017-10-11T21:28:42.735Z,10.40
2017-10-11T21:31:09.092Z,10.30
2017-10-11T21:33:35.489Z,10.30
2017-10-11T21:36:01.862Z,10.40
2017-10-11T21:38:28.306Z,10.30
2017-10-11T21:40:55.415Z,10.30
2017-10-11T21:43:21.769Z,10.30
2017-10-11T21:45:48.154Z,10.30
2017-10-11T21:48:21.484Z,10.20
2017-10-11T21:50:48.902Z,10.20
2017-10-11T21:53:15.266Z,10.20
2017-10-11T21:55:41.646Z,10.20
2017-10-11T21:58:08.010Z,10.20
2017-10-11T22:00:34.353Z,10.10
2017-10-11T22:03:00.750Z,10.10
2017-10-11T22:05:27.123Z,10.10
2017-10-11T22:07:53.491Z,10.10
2017-10-11T22:10:19.824Z,10.10
2017-10-11T22:12:46.196Z,10.00
2017-10-11T22:15:12.512Z,10.00
2017-10-11T22:17:38.766Z,10.00
2017-10-11T22:20:05.131Z,10.00
2017-10-11T22:22:31.486Z,10.00
2017-10-11T22:24:57.883Z,10.00
2017-10-11T22:27:25.005Z,10.00
2017-10-11T22:29:52.137Z,10.00
2017-10-11T22:32:18.433Z,10.00
2017-10-11T22:34:44.776Z,10.00
2017-10-11T22:37:11.153Z,10.00
2017-10-11T22:39:37.638Z,9.90
2017-10-11T22:42:03.966Z,9.90
2017-10-11T22:44:31.093Z,9.90
2017-10-11T22:46:57.455Z,9.90
2017-10-11T22:49:23.814Z,9.80
2017-10-11T22:51:50.901Z,9.80
2017-10-11T22:54:17.206Z,9.80
2017-10-11T22:56:43.540Z,9.80
2017-10-11T22:59:10.628Z,9.70
2017-10-11T23:01:36.932Z,9.70
2017-10-11T23:04:03.269Z,9.70
2017-10-11T23:06:29.573Z,9.80
2017-10-11T23:08:56.629Z,9.70
2017-10-11T23:11:23.629Z,9.70
2017-10-11T23:13:49.932Z,9.70
2017-10-11T23:16:16.247Z,9.70
2017-10-11T23:18:42.577Z,9.60
2017-10-11T23:21:08.868Z,9.60
2017-10-11T23:23:35.126Z,9.60
2017-10-11T23:26:01.484Z,9.70
2017-10-11T23:28:28.562Z,9.70
2017-10-11T23:30:54.856Z,9.60
2017-10-11T23:33:21.218Z,9.60
2017-10-11T23:35:47.508Z,9.60
2017-10-11T23:38:13.792Z,9.60
2017-10-11T23:40:40.844Z,9.60
2017-10-11T23:43:07.868Z,9.50
2017-10-11T23:45:34.155Z,9.50
2017-10-11T23:48:00.468Z,9.50
2017-10-11T23:50:26.774Z,9.40
2017-10-11T23:52:53.152Z,9.40
2017-10-11T23:55:19.423Z,9.40
2017-10-11T23:57:46.466Z,9.40
